createdAt,value
2019-05-15T00:00:08.914Z,13.32
2019-05-15T00:02:38.727Z,14.33
2019-05-15T00:05:08.996Z,17.27
2019-05-15T00:07:39.072Z,16.62
2019-05-15T00:10:08.755Z,18.75
2019-05-15T00:12:39.518Z,18.12
2019-05-15T00:15:09.219Z,15.85
2019-05-15T00:17:39.315Z,17.45
2019-05-15T00:20:09.865Z,20.72
2019-05-15T00:22:39.074Z,21.10
2019-05-15T00:25:09.366Z,21.05
2019-05-15T00:27:38.788Z,21.40
2019-05-15T00:30:10.876Z,21.20
2019-05-15T00:32:39.681Z,20.15
2019-05-15T00:35:09.352Z,22.22
2019-05-15T00:37:38.950Z,18.77
2019-05-15T00:40:08.810Z,18.27
2019-05-15T00:42:38.573Z,21.75
2019-05-15T00:45:09.501Z,19.45
2019-05-15T00:47:39.823Z,20.20
2019-05-15T00:50:09.256Z,21.60
2019-05-15T00:52:39.079Z,18.48
2019-05-15T00:55:09.157Z,18.23
2019-05-15T00:57:39.332Z,18.90
2019-05-15T01:00:08.886Z,19.67
2019-05-15T01:02:38.867Z,19.30
2019-05-15T01:05:08.380Z,19.23
2019-05-15T01:07:39.265Z,19.85
2019-05-15T01:10:09.824Z,20.75
2019-05-15T01:12:38.635Z,21.17
2019-05-15T01:15:10.330Z,25.00
2019-05-15T01:17:39.402Z,22.02
2019-05-15T01:20:08.568Z,20.32
2019-05-15T01:22:39.300Z,17.87
2019-05-15T01:25:08.855Z,19.80
2019-05-15T01:27:38.749Z,21.97
2019-05-15T01:30:08.963Z,18.07
2019-05-15T01:32:39.655Z,20.12
2019-05-15T01:35:09.572Z,22.85
2019-05-15T01:37:39.290Z,21.20
2019-05-15T01:40:09.447Z,21.87
2019-05-15T01:42:38.877Z,18.67
2019-05-15T01:45:08.655Z,17.67
2019-05-15T01:47:38.942Z,20.10
2019-05-15T01:50:09.177Z,19.37
2019-05-15T01:52:39.012Z,18.05
2019-05-15T01:55:09.138Z,20.72
2019-05-15T01:57:38.473Z,18.55
2019-05-15T02:00:08.701Z,17.23
2019-05-15T02:02:39.021Z,18.45
2019-05-15T02:05:09.491Z,25.55
2019-05-15T02:07:58.533Z,22.07
2019-05-15T02:10:29.158Z,21.05
2019-05-15T02:12:58.801Z,19.00
2019-05-15T02:15:28.585Z,19.02
2019-05-15T02:17:58.767Z,21.27
2019-05-15T02:20:29.118Z,20.10
2019-05-15T02:22:59.071Z,21.37
2019-05-15T02:25:28.135Z,17.62
2019-05-15T02:27:58.739Z,18.90
2019-05-15T02:30:30.217Z,17.32
2019-05-15T02:32:58.986Z,19.70
2019-05-15T02:35:29.581Z,22.15
2019-05-15T02:37:59.806Z,20.70
2019-05-15T02:40:29.426Z,19.77
2019-05-15T02:42:59.188Z,21.62
2019-05-15T02:45:30.134Z,20.50
2019-05-15T02:47:59.662Z,24.55
2019-05-15T02:50:29.150Z,26.05
2019-05-15T02:53:00.505Z,23.42
2019-05-15T02:55:29.645Z,23.05
2019-05-15T02:57:59.055Z,26.55
2019-05-15T03:00:41.203Z,27.10
2019-05-15T03:03:00.144Z,23.62
2019-05-15T03:05:29.252Z,24.52
2019-05-15T03:07:59.301Z,28.47
2019-05-15T03:10:29.630Z,24.23
2019-05-15T03:13:00.175Z,27.25
2019-05-15T03:15:29.124Z,25.10
2019-05-15T03:18:00.332Z,24.90
2019-05-15T03:20:29.879Z,26.27
2019-05-15T03:22:59.786Z,27.70
2019-05-15T03:25:29.740Z,25.30
2019-05-15T03:27:59.545Z,23.15
2019-05-15T03:30:32.459Z,26.10
2019-05-15T03:33:03.626Z,26.12
2019-05-15T03:35:32.723Z,25.12
2019-05-15T03:37:59.837Z,23.98
2019-05-15T03:40:29.999Z,24.50
2019-05-15T03:42:59.233Z,23.85
2019-05-15T03:45:29.665Z,26.12
2019-05-15T03:47:59.596Z,20.95
2019-05-15T03:50:29.126Z,24.92
2019-05-15T03:52:58.861Z,23.18
2019-05-15T03:55:29.698Z,22.82
2019-05-15T03:57:59.124Z,19.75
2019-05-15T04:00:30.154Z,18.35
2019-05-15T04:02:59.101Z,21.40
2019-05-15T04:05:29.365Z,20.15
2019-05-15T04:07:59.829Z,24.45
2019-05-15T04:10:28.973Z,20.80
2019-05-15T04:12:59.988Z,20.25
2019-05-15T04:15:30.148Z,21.23
2019-05-15T04:18:00.297Z,20.90
2019-05-15T04:20:29.724Z,21.68
2019-05-15T04:23:00.329Z,22.95
2019-05-15T04:25:29.673Z,19.07
2019-05-15T04:28:00.056Z,17.42
2019-05-15T04:30:30.771Z,20.02
2019-05-15T04:32:59.552Z,20.80
2019-05-15T04:35:28.929Z,19.45
2019-05-15T04:37:59.762Z,19.73
2019-05-15T04:40:29.855Z,21.82
2019-05-15T04:42:59.252Z,18.75
2019-05-15T04:45:34.489Z,18.82
2019-05-15T04:47:58.846Z,19.92
2019-05-15T04:50:28.703Z,20.75
2019-05-15T04:52:59.268Z,21.23
2019-05-15T04:55:28.985Z,21.45
2019-05-15T04:57:59.215Z,20.60
2019-05-15T05:00:49.873Z,18.95
2019-05-15T05:03:20.504Z,20.02
2019-05-15T05:05:50.385Z,18.95
2019-05-15T05:08:20.402Z,19.70
2019-05-15T05:10:49.445Z,18.35
2019-05-15T05:13:19.741Z,19.98
2019-05-15T05:15:50.007Z,18.48
2019-05-15T05:18:19.459Z,17.48
2019-05-15T05:20:48.732Z,21.70
2019-05-15T05:23:19.132Z,19.20
2019-05-15T05:25:49.211Z,17.40
2019-05-15T05:28:18.223Z,20.20
2019-05-15T05:30:48.316Z,19.52
2019-05-15T05:33:18.185Z,20.60
2019-05-15T05:35:48.507Z,18.12
2019-05-15T05:38:19.307Z,21.20
2019-05-15T05:40:49.561Z,19.17
2019-05-15T05:43:19.072Z,17.50
2019-05-15T05:45:49.155Z,20.30
2019-05-15T05:48:18.657Z,18.67
2019-05-15T05:50:49.579Z,22.25
2019-05-15T05:53:17.685Z,22.93
2019-05-15T05:55:46.092Z,18.30
2019-05-15T05:58:14.746Z,16.50
2019-05-15T06:00:45.774Z,21.95
2019-05-15T06:03:14.166Z,21.35
2019-05-15T06:05:42.556Z,20.25
2019-05-15T06:08:11.338Z,18.07
2019-05-15T06:10:39.718Z,17.55
2019-05-15T06:13:08.829Z,18.40
2019-05-15T06:15:39.035Z,16.60
2019-05-15T06:18:08.300Z,16.93
2019-05-15T06:20:39.336Z,17.75
2019-05-15T06:23:08.481Z,19.48
2019-05-15T06:25:39.074Z,20.75
2019-05-15T06:28:09.079Z,16.40
2019-05-15T06:30:38.591Z,16.55
2019-05-15T06:33:12.847Z,14.93
2019-05-15T06:35:39.378Z,16.67
2019-05-15T06:38:08.557Z,16.87
2019-05-15T06:40:39.351Z,16.95
2019-05-15T06:43:08.723Z,16.07
2019-05-15T06:45:38.007Z,16.12
2019-05-15T06:48:09.475Z,15.95
2019-05-15T06:50:40.230Z,17.87
2019-05-15T06:53:10.885Z,16.05
2019-05-15T06:55:39.431Z,19.32
2019-05-15T06:58:09.187Z,16.20
2019-05-15T07:00:38.996Z,16.12
2019-05-15T07:03:18.084Z,14.70
2019-05-15T07:05:38.655Z,17.55
2019-05-15T07:08:09.073Z,22.13
2019-05-15T07:10:37.869Z,18.20
2019-05-15T07:13:08.729Z,15.65
2019-05-15T07:15:38.361Z,19.90
2019-05-15T07:18:08.712Z,17.05
2019-05-15T07:20:39.090Z,20.02
2019-05-15T07:23:08.788Z,18.67
2019-05-15T07:25:38.981Z,18.82
2019-05-15T07:28:08.844Z,17.15
2019-05-15T07:30:41.080Z,19.67
2019-05-15T07:33:08.789Z,19.75
2019-05-15T07:35:38.449Z,18.98
2019-05-15T07:38:08.016Z,16.12
2019-05-15T07:40:38.633Z,19.57
2019-05-15T07:43:09.136Z,18.90
2019-05-15T07:45:42.676Z,22.32
2019-05-15T07:48:09.174Z,19.23
2019-05-15T07:50:38.739Z,15.85
2019-05-15T07:53:08.772Z,16.85
2019-05-15T07:55:39.333Z,16.23
2019-05-15T07:58:08.521Z,19.52
2019-05-15T08:00:39.490Z,19.17
2019-05-15T08:03:10.144Z,18.23
2019-05-15T08:05:39.445Z,16.85
2019-05-15T08:08:08.810Z,16.23
2019-05-15T08:10:39.699Z,17.65
2019-05-15T08:13:08.906Z,16.12
2019-05-15T08:15:38.106Z,13.53
2019-05-15T08:18:09.839Z,19.70
2019-05-15T08:20:38.492Z,15.63
2019-05-15T08:23:08.536Z,14.00
2019-05-15T08:25:38.912Z,17.52
2019-05-15T08:28:08.812Z,16.60
2019-05-15T08:30:38.763Z,14.78
2019-05-15T08:33:08.387Z,15.93
2019-05-15T08:35:38.670Z,17.07
2019-05-15T08:38:08.835Z,17.92
2019-05-15T08:40:41.033Z,14.00
2019-05-15T08:43:11.446Z,12.68
2019-05-15T08:45:39.159Z,16.25
2019-05-15T08:48:09.322Z,13.65
2019-05-15T08:50:39.034Z,15.65
2019-05-15T08:53:08.382Z,15.15
2019-05-15T08:55:38.963Z,14.53
2019-05-15T08:58:13.568Z,13.28
2019-05-15T09:00:39.787Z,12.75
2019-05-15T09:03:08.768Z,16.35
2019-05-15T09:05:38.861Z,16.65
2019-05-15T09:08:09.358Z,11.85
2019-05-15T09:10:38.638Z,11.55
2019-05-15T09:13:09.613Z,12.93
2019-05-15T09:15:39.566Z,13.48
2019-05-15T09:18:14.997Z,10.55
2019-05-15T09:20:38.488Z,14.47
2019-05-15T09:23:09.013Z,12.55
2019-05-15T09:25:38.979Z,16.35
2019-05-15T09:28:08.636Z,13.13
2019-05-15T09:30:39.071Z,12.53
2019-05-15T09:33:08.625Z,14.28
2019-05-15T09:35:39.228Z,12.40
2019-05-15T09:38:08.630Z,12.20
2019-05-15T09:40:45.284Z,12.50
2019-05-15T09:43:10.897Z,12.78
2019-05-15T09:45:38.265Z,13.43
2019-05-15T09:48:10.162Z,13.40
2019-05-15T09:50:39.643Z,11.75
2019-05-15T09:53:09.329Z,11.63
2019-05-15T09:55:38.291Z,11.73
2019-05-15T09:58:08.323Z,11.70
2019-05-15T10:00:38.582Z,15.72
2019-05-15T10:03:09.554Z,11.25
2019-05-15T10:05:38.809Z,10.13
2019-05-15T10:08:08.915Z,11.90
2019-05-15T10:10:38.008Z,12.60
2019-05-15T10:13:08.956Z,10.40
2019-05-15T10:15:38.982Z,10.45
2019-05-15T10:18:09.765Z,10.70
2019-05-15T10:20:37.635Z,10.40
2019-05-15T10:23:08.596Z,9.43
2019-05-15T10:25:36.111Z,9.40
2019-05-15T10:28:04.573Z,9.55
2019-05-15T10:30:33.021Z,9.95
2019-05-15T10:33:01.419Z,11.75
2019-05-15T10:35:31.786Z,8.58
2019-05-15T10:37:59.920Z,10.90
2019-05-15T10:40:29.566Z,9.75
2019-05-15T10:42:59.448Z,11.03
2019-05-15T10:45:29.570Z,9.00
2019-05-15T10:47:58.610Z,9.33
2019-05-15T10:50:28.464Z,10.95
2019-05-15T10:52:57.429Z,12.18
2019-05-15T10:55:25.810Z,8.08
2019-05-15T10:57:54.308Z,8.40
2019-05-15T11:00:23.505Z,7.75
2019-05-15T11:02:52.129Z,7.90
2019-05-15T11:05:20.847Z,15.32
2019-05-15T11:07:52.397Z,9.70
2019-05-15T11:10:20.842Z,9.53
2019-05-15T11:12:49.252Z,6.92
2019-05-15T11:15:18.623Z,7.78
2019-05-15T11:17:49.175Z,7.12
2019-05-15T11:20:18.755Z,9.60
2019-05-15T11:22:49.986Z,7.00
2019-05-15T11:25:17.945Z,6.50
2019-05-15T11:27:48.431Z,7.33
2019-05-15T11:30:19.187Z,6.78
2019-05-15T11:32:48.708Z,8.08
2019-05-15T11:35:18.938Z,6.42
2019-05-15T11:37:55.878Z,6.35
2019-05-15T11:40:18.882Z,5.80
2019-05-15T11:42:48.755Z,6.62
2019-05-15T11:45:18.544Z,9.00
2019-05-15T11:47:49.986Z,6.15
2019-05-15T11:50:20.583Z,7.35
2019-05-15T11:52:49.238Z,9.63
2019-05-15T11:55:18.144Z,10.43
2019-05-15T11:57:51.129Z,8.68
2019-05-15T12:00:26.529Z,5.75
2019-05-15T12:02:49.410Z,7.87
2019-05-15T12:05:18.412Z,5.97
2019-05-15T12:07:48.477Z,7.87
2019-05-15T12:10:18.508Z,6.75
2019-05-15T12:12:49.741Z,7.22
2019-05-15T12:15:19.122Z,7.97
2019-05-15T12:17:48.471Z,6.20
2019-05-15T12:20:19.403Z,5.87
2019-05-15T12:22:48.528Z,8.08
2019-05-15T12:25:17.659Z,7.05
2019-05-15T12:27:49.062Z,8.13
2019-05-15T12:30:19.993Z,6.08
2019-05-15T12:32:49.271Z,6.30
2019-05-15T12:35:20.439Z,9.23
2019-05-15T12:37:48.082Z,5.12
2019-05-15T13:00:22.289Z,7.33
2019-05-15T13:02:50.673Z,6.37
2019-05-15T13:05:19.353Z,7.40
2019-05-15T13:07:48.414Z,6.12
2019-05-15T13:10:18.374Z,5.47
2019-05-15T13:12:59.403Z,6.15
2019-05-15T13:15:18.911Z,5.95
2019-05-15T13:17:53.041Z,6.05
2019-05-15T13:20:18.576Z,5.20
2019-05-15T13:25:18.798Z,6.60
2019-05-15T13:27:48.821Z,8.85
2019-05-15T13:30:18.431Z,5.08
2019-05-15T13:32:49.579Z,4.62
2019-05-15T13:35:18.387Z,8.15
2019-05-15T13:37:49.195Z,7.55
2019-05-15T13:40:18.634Z,8.73
2019-05-15T13:42:48.583Z,7.47
2019-05-15T13:45:18.283Z,4.00
2019-05-15T13:47:49.119Z,6.12
2019-05-15T13:50:19.479Z,5.67
2019-05-15T13:52:48.350Z,13.08
2019-05-15T13:55:24.792Z,7.67
2019-05-15T13:57:48.585Z,4.72
2019-05-15T14:00:17.919Z,5.55
2019-05-15T14:02:47.965Z,4.72
2019-05-15T14:05:16.510Z,6.45
2019-05-15T14:07:49.204Z,5.03
2019-05-15T14:10:15.184Z,6.62
2019-05-15T14:12:43.571Z,4.72
2019-05-15T14:15:12.538Z,4.40
2019-05-15T14:17:40.926Z,6.53
2019-05-15T14:20:09.878Z,7.10
2019-05-15T14:22:39.203Z,7.75
2019-05-15T14:25:08.774Z,6.22
2019-05-15T14:27:39.678Z,5.92
2019-05-15T14:30:10.345Z,4.78
2019-05-15T14:32:39.562Z,5.78
2019-05-15T14:35:09.763Z,7.05
2019-05-15T14:37:38.528Z,8.65
2019-05-15T14:40:09.118Z,6.03
2019-05-15T14:42:39.620Z,7.80
2019-05-15T14:45:09.165Z,6.67
2019-05-15T14:47:38.848Z,4.40
2019-05-15T14:50:10.101Z,7.40
2019-05-15T14:52:38.754Z,7.42
2019-05-15T14:55:07.890Z,4.47
2019-05-15T14:57:39.225Z,4.75
2019-05-15T15:00:08.927Z,10.25
2019-05-15T15:02:38.903Z,4.53
2019-05-15T15:05:08.997Z,8.05
2019-05-15T15:07:38.312Z,7.40
2019-05-15T15:10:08.147Z,8.78
2019-05-15T15:12:39.681Z,6.80
2019-05-15T15:15:09.729Z,5.58
2019-05-15T15:17:38.668Z,8.10
2019-05-15T15:20:08.060Z,8.40
2019-05-15T15:22:39.142Z,5.05
2019-05-15T15:25:09.520Z,5.33
2019-05-15T15:27:38.996Z,9.25
2019-05-15T15:30:09.305Z,5.12
2019-05-15T15:32:38.556Z,7.87
2019-05-15T15:35:08.623Z,6.83
2019-05-15T15:37:38.507Z,6.87
2019-05-15T15:40:08.445Z,7.35
2019-05-15T15:42:39.444Z,7.78
2019-05-15T15:45:09.225Z,5.00
2019-05-15T15:47:38.978Z,7.33
2019-05-15T15:50:09.428Z,5.83
2019-05-15T15:52:38.812Z,10.13
2019-05-15T15:55:09.019Z,5.70
2019-05-15T15:57:39.725Z,5.15
2019-05-15T16:00:10.508Z,6.58
2019-05-15T16:02:41.742Z,8.55
2019-05-15T16:05:11.155Z,7.87
2019-05-15T16:07:40.002Z,8.60
2019-05-15T16:10:10.406Z,7.33
2019-05-15T16:12:39.141Z,4.87
2019-05-15T16:15:09.148Z,8.60
2019-05-15T16:17:38.441Z,5.80
2019-05-15T16:20:09.381Z,6.70
2019-05-15T16:22:38.414Z,6.00
2019-05-15T16:25:10.001Z,7.85
2019-05-15T16:27:38.792Z,6.87
2019-05-15T16:30:08.507Z,9.65
2019-05-15T16:32:38.910Z,8.25
2019-05-15T16:35:09.074Z,8.18
2019-05-15T16:37:38.822Z,6.40
2019-05-15T16:40:08.657Z,4.47
2019-05-15T16:42:38.426Z,7.17
2019-05-15T16:45:09.572Z,5.53
2019-05-15T16:47:38.774Z,7.47
2019-05-15T16:50:08.840Z,7.47
2019-05-15T16:52:38.784Z,7.45
2019-05-15T16:55:09.615Z,6.37
2019-05-15T16:57:38.790Z,6.80
2019-05-15T17:00:09.611Z,8.23
2019-05-15T17:02:39.231Z,7.00
2019-05-15T17:05:09.303Z,8.50
2019-05-15T17:07:38.857Z,6.95
2019-05-15T17:10:08.801Z,6.40
2019-05-15T17:12:38.625Z,4.17
2019-05-15T17:15:09.095Z,6.67
2019-05-15T17:17:38.755Z,9.38
2019-05-15T17:20:09.825Z,4.50
2019-05-15T17:22:39.021Z,6.78
2019-05-15T17:25:09.180Z,5.45
2019-05-15T17:27:38.054Z,6.83
2019-05-15T17:30:09.487Z,7.55
2019-05-15T17:32:38.950Z,10.58
2019-05-15T17:35:09.857Z,5.60
2019-05-15T17:37:38.642Z,7.65
2019-05-15T17:40:07.752Z,9.75
2019-05-15T17:42:38.527Z,7.05
2019-05-15T17:45:09.019Z,5.50
2019-05-15T17:47:38.756Z,9.18
2019-05-15T17:50:08.375Z,6.87
2019-05-15T17:52:38.622Z,5.83
2019-05-15T17:55:07.674Z,6.05
2019-05-15T17:57:38.538Z,7.58
2019-05-15T18:00:12.216Z,8.03
2019-05-15T18:02:39.582Z,11.90
2019-05-15T18:05:08.704Z,7.60
2019-05-15T18:07:38.966Z,8.13
2019-05-15T18:10:08.497Z,11.18
2019-05-15T18:12:38.759Z,12.95
2019-05-15T18:15:09.161Z,9.83
2019-05-15T18:17:39.265Z,5.35
2019-05-15T18:20:09.974Z,6.67
2019-05-15T18:22:39.467Z,6.58
2019-05-15T18:25:09.198Z,7.28
2019-05-15T18:27:38.951Z,6.65
2019-05-15T18:30:09.232Z,6.78
2019-05-15T18:32:39.177Z,6.05
2019-05-15T18:35:08.458Z,7.85
2019-05-15T18:37:39.306Z,8.08
2019-05-15T18:40:09.905Z,6.37
2019-05-15T18:42:39.342Z,7.53
2019-05-15T18:45:10.423Z,7.67
2019-05-15T18:47:39.301Z,7.12
2019-05-15T18:50:12.771Z,13.30
2019-05-15T18:52:38.920Z,10.18
2019-05-15T18:55:09.372Z,11.78
2019-05-15T18:57:38.508Z,7.60
2019-05-15T19:00:08.951Z,9.48
2019-05-15T19:02:39.219Z,8.95
2019-05-15T19:05:08.427Z,6.40
2019-05-15T19:07:38.304Z,5.28
2019-05-15T19:10:08.797Z,8.20
2019-05-15T19:12:37.851Z,5.72
2019-05-15T19:15:09.369Z,11.83
2019-05-15T19:17:39.083Z,7.10
2019-05-15T19:20:08.940Z,8.43
2019-05-15T19:22:40.556Z,6.15
2019-05-15T19:25:09.206Z,6.12
2019-05-15T19:27:39.106Z,6.55
2019-05-15T19:30:08.488Z,9.73
2019-05-15T19:32:38.852Z,8.45
2019-05-15T19:35:08.133Z,8.33
2019-05-15T19:37:38.449Z,7.08
2019-05-15T19:40:09.159Z,8.98
2019-05-15T19:42:38.336Z,11.15
2019-05-15T19:45:09.211Z,7.92
2019-05-15T19:47:38.925Z,7.20
2019-05-15T19:50:09.637Z,7.62
2019-05-15T19:52:38.306Z,7.00
2019-05-15T19:55:08.851Z,7.87
2019-05-15T19:57:39.033Z,8.45
2019-05-15T20:00:09.389Z,8.13
2019-05-15T20:02:38.306Z,9.58
2019-05-15T20:05:09.235Z,8.35
2019-05-15T20:07:38.953Z,7.95
2019-05-15T20:10:08.752Z,10.50
2019-05-15T20:12:38.920Z,10.82
2019-05-15T20:15:09.128Z,7.80
2019-05-15T20:17:38.784Z,9.80
2019-05-15T20:20:08.763Z,6.62
2019-05-15T20:22:39.652Z,8.18
2019-05-15T20:25:08.407Z,9.23
2019-05-15T20:27:39.217Z,7.58
2019-05-15T20:30:08.637Z,8.33
2019-05-15T20:32:38.712Z,9.65
2019-05-15T20:35:08.849Z,8.58
2019-05-15T20:37:39.104Z,9.90
2019-05-15T20:40:09.238Z,8.93
2019-05-15T20:42:38.526Z,9.83
2019-05-15T20:45:11.808Z,11.80
2019-05-15T20:47:39.001Z,8.08
2019-05-15T20:50:08.828Z,9.68
2019-05-15T20:52:39.408Z,9.55
2019-05-15T20:55:08.093Z,8.65
2019-05-15T20:57:40.024Z,10.38
2019-05-15T21:00:09.134Z,7.45
2019-05-15T21:02:38.134Z,9.28
2019-05-15T21:05:08.736Z,8.23
2019-05-15T21:07:40.011Z,10.48
2019-05-15T21:10:09.461Z,10.55
2019-05-15T21:12:41.031Z,8.38
2019-05-15T21:15:09.829Z,10.72
2019-05-15T21:17:39.841Z,10.88
2019-05-15T21:20:09.688Z,9.78
2019-05-15T21:22:40.216Z,9.43
2019-05-15T21:25:10.690Z,9.18
2019-05-15T21:27:42.586Z,9.38
2019-05-15T21:30:10.614Z,8.90
2019-05-15T21:32:39.248Z,10.35
2019-05-15T21:35:09.287Z,8.05
2019-05-15T21:37:39.017Z,8.33
2019-05-15T21:40:08.666Z,9.73
2019-05-15T21:42:38.846Z,8.30
2019-05-15T21:45:14.289Z,9.13
2019-05-15T21:47:38.780Z,8.78
2019-05-15T21:50:08.341Z,8.73
2019-05-15T21:52:39.177Z,12.60
2019-05-15T21:55:09.296Z,11.20
2019-05-15T21:57:40.164Z,10.20
2019-05-15T22:00:22.490Z,12.65
2019-05-15T22:02:50.974Z,12.33
2019-05-15T22:05:19.409Z,12.73
2019-05-15T22:07:51.085Z,13.00
2019-05-15T22:10:19.544Z,12.00
2019-05-15T22:12:48.414Z,13.10
2019-05-15T22:15:18.940Z,13.28
2019-05-15T22:17:49.429Z,12.40
2019-05-15T22:20:18.911Z,11.05
2019-05-15T22:22:50.324Z,10.43
2019-05-15T22:25:19.012Z,10.98
2019-05-15T22:27:48.659Z,11.53
2019-05-15T22:30:19.103Z,12.15
2019-05-15T22:32:49.400Z,10.32
2019-05-15T22:35:19.016Z,12.40
2019-05-15T22:37:49.389Z,10.48
2019-05-15T22:40:19.456Z,10.95
2019-05-15T22:42:48.717Z,10.43
2019-05-15T22:45:18.906Z,12.35
2019-05-15T22:47:48.182Z,10.03
2019-05-15T22:50:19.085Z,10.05
2019-05-15T22:52:49.334Z,13.55
2019-05-15T22:55:18.451Z,12.85
2019-05-15T22:57:48.102Z,14.30
2019-05-15T23:00:18.734Z,14.28
2019-05-15T23:02:48.857Z,12.53
2019-05-15T23:05:25.146Z,11.78
2019-05-15T23:07:48.355Z,10.38
2019-05-15T23:10:16.928Z,9.13
2019-05-15T23:12:45.339Z,10.98
2019-05-15T23:15:13.854Z,9.50
2019-05-15T23:17:42.537Z,9.25
2019-05-15T23:20:11.734Z,10.88
2019-05-15T23:22:40.437Z,9.38
2019-05-15T23:25:09.357Z,12.93
2019-05-15T23:27:38.398Z,10.53
2019-05-15T23:30:09.439Z,11.70
2019-05-15T23:32:39.004Z,12.93
2019-05-15T23:35:08.222Z,10.48
2019-05-15T23:37:39.046Z,10.70
2019-05-15T23:40:08.767Z,10.25
2019-05-15T23:42:39.025Z,12.05
2019-05-15T23:45:08.937Z,12.20
2019-05-15T23:47:38.329Z,12.40
2019-05-15T23:50:07.885Z,13.00
2019-05-15T23:52:38.434Z,13.05
2019-05-15T23:55:08.646Z,13.98
2019-05-15T23:57:39.222Z,13.48
